createdAt,value
2023-05-06T00:00:53.998Z,4.57
2023-05-06T00:01:54.023Z,4.58
2023-05-06T00:02:54.202Z,4.59
2023-05-06T00:03:54.135Z,4.65
2023-05-06T00:04:54.169Z,4.58
2023-05-06T00:05:54.067Z,4.61
2023-05-06T00:06:54.073Z,4.55
2023-05-06T00:07:54.095Z,4.56
2023-05-06T00:08:54.094Z,4.57
2023-05-06T00:09:54.114Z,4.60
2023-05-06T00:10:54.127Z,4.42
2023-05-06T00:11:54.137Z,4.47
2023-05-06T00:12:54.180Z,4.56
2023-05-06T00:13:54.174Z,4.45
2023-05-06T00:14:54.196Z,4.48
2023-05-06T00:15:54.243Z,4.48
2023-05-06T00:16:54.223Z,4.46
2023-05-06T00:17:54.299Z,4.44
2023-05-06T00:18:54.261Z,4.42
2023-05-06T00:19:54.283Z,4.40
2023-05-06T00:20:54.299Z,4.36
2023-05-06T00:21:54.305Z,4.38
2023-05-06T00:22:54.328Z,4.34
2023-05-06T00:23:54.337Z,4.36
2023-05-06T00:24:54.363Z,4.28
2023-05-06T00:25:54.386Z,4.40
2023-05-06T00:26:54.402Z,4.34
2023-05-06T00:27:54.422Z,4.28
2023-05-06T00:28:54.433Z,4.24
2023-05-06T00:29:54.450Z,4.22
2023-05-06T00:30:54.468Z,4.22
2023-05-06T00:31:54.510Z,4.19
2023-05-06T00:32:54.692Z,4.24
2023-05-06T00:33:54.528Z,4.25
2023-05-06T00:34:54.598Z,4.28
2023-05-06T00:35:54.557Z,4.15
2023-05-06T00:36:54.600Z,4.18
2023-05-06T00:37:54.607Z,4.22
2023-05-06T00:38:54.619Z,4.16
2023-05-06T00:39:54.642Z,4.22
2023-05-06T00:40:54.663Z,4.19
2023-05-06T00:41:54.679Z,4.08
2023-05-06T00:42:54.707Z,4.12
2023-05-06T00:43:54.725Z,4.08
2023-05-06T00:44:54.754Z,4.11
2023-05-06T00:45:54.767Z,4.08
2023-05-06T00:46:54.789Z,4.15
2023-05-06T00:47:54.826Z,4.00
2023-05-06T00:48:54.818Z,4.03
2023-05-06T00:49:54.847Z,4.09
2023-05-06T00:50:54.995Z,4.03
2023-05-06T00:51:54.893Z,4.03
2023-05-06T00:52:54.892Z,4.03
2023-05-06T00:53:54.917Z,4.02
2023-05-06T00:54:54.933Z,3.99
2023-05-06T00:55:54.950Z,3.99
2023-05-06T00:56:54.970Z,3.96
2023-05-06T00:57:55.001Z,4.01
2023-05-06T00:58:55.004Z,3.95
2023-05-06T00:59:55.024Z,4.02
2023-05-06T01:00:55.092Z,3.88
2023-05-06T01:01:55.104Z,3.87
2023-05-06T01:02:55.174Z,3.93
2023-05-06T01:03:55.442Z,3.91
2023-05-06T01:04:55.150Z,3.93
2023-05-06T01:05:55.151Z,3.89
2023-05-06T01:06:55.292Z,3.90
2023-05-06T01:07:55.187Z,3.84
2023-05-06T01:08:55.209Z,3.91
2023-05-06T01:09:55.241Z,3.85
2023-05-06T01:10:55.291Z,3.81
2023-05-06T01:11:55.295Z,3.82
2023-05-06T01:12:55.358Z,3.84
2023-05-06T01:13:55.335Z,3.70
2023-05-06T01:14:55.352Z,3.75
2023-05-06T01:15:55.380Z,3.81
2023-05-06T01:16:55.563Z,3.78
2023-05-06T01:17:55.455Z,3.84
2023-05-06T01:18:55.460Z,3.77
2023-05-06T01:19:55.474Z,3.77
2023-05-06T01:20:55.501Z,3.79
2023-05-06T01:21:55.531Z,3.78
2023-05-06T01:22:55.606Z,3.79
2023-05-06T01:23:55.695Z,3.59
2023-05-06T01:24:55.607Z,3.71
2023-05-06T01:25:55.611Z,3.70
2023-05-06T01:26:55.631Z,3.65
2023-05-06T01:27:55.651Z,3.70
2023-05-06T01:28:55.686Z,3.67
2023-05-06T01:29:55.702Z,3.73
2023-05-06T01:30:55.745Z,3.67
2023-05-06T01:31:55.748Z,3.58
2023-05-06T01:32:55.792Z,3.68
2023-05-06T01:33:55.807Z,3.67
2023-05-06T01:34:55.822Z,3.62
2023-05-06T01:35:55.854Z,3.60
2023-05-06T01:36:55.877Z,3.68
2023-05-06T01:37:55.916Z,3.62
2023-05-06T01:38:55.934Z,3.64
2023-05-06T01:39:55.958Z,3.66
2023-05-06T01:40:55.970Z,3.60
2023-05-06T01:41:56.003Z,3.56
2023-05-06T01:42:56.036Z,3.60
2023-05-06T01:43:56.048Z,3.51
2023-05-06T01:44:56.077Z,3.58
2023-05-06T01:45:56.166Z,3.51
2023-05-06T01:46:56.139Z,3.53
2023-05-06T01:47:56.161Z,3.53
2023-05-06T01:48:56.173Z,3.48
2023-05-06T01:49:56.192Z,3.52
2023-05-06T01:50:56.209Z,3.41
2023-05-06T01:51:56.307Z,3.47
2023-05-06T01:52:56.260Z,3.45
2023-05-06T01:53:56.279Z,3.42
2023-05-06T01:54:56.321Z,3.40
2023-05-06T01:55:56.346Z,3.41
2023-05-06T01:56:56.377Z,3.36
2023-05-06T01:57:56.405Z,3.37
2023-05-06T01:58:57.116Z,3.44
2023-05-06T01:59:56.455Z,3.41
2023-05-06T02:00:56.479Z,3.40
2023-05-06T02:01:56.561Z,3.34
2023-05-06T02:02:56.661Z,3.38
2023-05-06T02:03:56.701Z,3.33
2023-05-06T02:04:56.595Z,3.40
2023-05-06T02:05:56.625Z,3.33
2023-05-06T02:06:56.658Z,3.38
2023-05-06T02:07:56.691Z,3.39
2023-05-06T02:08:56.714Z,3.31
2023-05-06T02:09:56.741Z,3.32
2023-05-06T02:10:56.833Z,3.31
2023-05-06T02:11:56.788Z,3.23
2023-05-06T02:12:56.841Z,3.28
2023-05-06T02:13:56.853Z,3.27
2023-05-06T02:14:56.881Z,3.30
2023-05-06T02:15:56.949Z,3.24
2023-05-06T02:16:56.939Z,3.20
2023-05-06T02:17:57.028Z,3.23
2023-05-06T02:18:57.004Z,3.24
2023-05-06T02:19:57.044Z,3.21
2023-05-06T02:20:57.081Z,3.21
2023-05-06T02:21:57.122Z,3.20
2023-05-06T02:22:57.141Z,3.20
2023-05-06T02:23:57.177Z,3.22
2023-05-06T02:24:57.198Z,3.11
2023-05-06T02:25:57.247Z,3.18
2023-05-06T02:26:57.338Z,3.19
2023-05-06T02:27:57.319Z,3.16
2023-05-06T02:28:57.354Z,3.19
2023-05-06T02:29:57.403Z,3.17
2023-05-06T02:30:57.448Z,3.17
2023-05-06T02:31:57.543Z,3.08
2023-05-06T02:32:57.538Z,3.13
2023-05-06T02:33:57.517Z,3.12
2023-05-06T02:34:57.557Z,3.11
2023-05-06T02:35:57.590Z,3.05
2023-05-06T02:36:57.633Z,3.08
2023-05-06T02:37:57.680Z,3.09
2023-05-06T02:38:57.703Z,3.08
2023-05-06T02:39:57.734Z,3.07
2023-05-06T02:40:57.772Z,3.03
2023-05-06T02:41:57.810Z,3.03
2023-05-06T02:42:57.937Z,3.05
2023-05-06T02:43:57.892Z,3.05
2023-05-06T02:44:57.951Z,3.05
2023-05-06T02:45:58.039Z,3.02
2023-05-06T02:46:58.014Z,3.06
2023-05-06T02:47:58.078Z,3.04
2023-05-06T02:48:58.122Z,2.99
2023-05-06T02:49:58.144Z,3.00
2023-05-06T02:50:58.172Z,3.00
2023-05-06T02:51:58.199Z,3.00
2023-05-06T02:52:58.248Z,2.94
2023-05-06T02:53:58.283Z,2.95
2023-05-06T02:54:58.329Z,2.92
2023-05-06T02:55:58.430Z,2.97
2023-05-06T02:56:58.412Z,2.99
2023-05-06T02:57:58.468Z,3.00
2023-05-06T02:58:58.493Z,2.96
2023-05-06T02:59:58.525Z,2.92
2023-05-06T03:00:58.597Z,2.94
2023-05-06T03:01:58.600Z,2.94
2023-05-06T03:02:58.677Z,2.93
2023-05-06T03:03:58.734Z,2.92
2023-05-06T03:04:58.708Z,2.90
2023-05-06T03:05:58.758Z,2.91
2023-05-06T03:06:58.796Z,2.86
2023-05-06T03:07:58.840Z,2.92
2023-05-06T03:08:58.877Z,2.84
2023-05-06T03:09:58.917Z,2.83
2023-05-06T03:10:58.955Z,2.82
2023-05-06T03:11:59.004Z,2.85
2023-05-06T03:12:59.066Z,2.83
2023-05-06T03:13:59.078Z,2.77
2023-05-06T03:14:59.275Z,2.86
2023-05-06T03:15:59.174Z,2.82
2023-05-06T03:16:59.363Z,2.79
2023-05-06T03:17:59.278Z,2.82
2023-05-06T03:18:59.306Z,2.78
2023-05-06T03:19:59.362Z,2.77
2023-05-06T03:20:59.424Z,2.84
2023-05-06T03:21:59.416Z,2.78
2023-05-06T03:22:59.462Z,2.67
2023-05-06T03:23:59.507Z,2.71
2023-05-06T03:24:59.536Z,2.69
2023-05-06T03:25:59.581Z,2.71
2023-05-06T03:26:59.621Z,2.75
2023-05-06T03:27:59.662Z,2.73
2023-05-06T03:28:59.698Z,2.70
2023-05-06T03:29:59.745Z,2.71
2023-05-06T03:30:59.978Z,2.68
2023-05-06T03:31:59.850Z,2.71
2023-05-06T03:32:59.875Z,2.67
2023-05-06T03:33:59.902Z,2.69
2023-05-06T03:34:59.941Z,2.68
2023-05-06T03:35:59.983Z,2.66
2023-05-06T03:37:00.026Z,2.64
2023-05-06T03:38:00.077Z,2.64
2023-05-06T03:39:00.130Z,2.66
2023-05-06T03:40:00.178Z,2.64
2023-05-06T03:41:00.173Z,2.68
2023-05-06T03:42:00.226Z,2.63
2023-05-06T03:43:00.283Z,2.60
2023-05-06T03:44:00.297Z,2.62
2023-05-06T03:45:00.344Z,2.60
2023-05-06T03:46:00.435Z,2.60
2023-05-06T03:47:00.478Z,2.57
2023-05-06T03:48:00.487Z,2.62
2023-05-06T03:49:00.489Z,2.57
2023-05-06T03:50:00.535Z,2.60
2023-05-06T03:51:00.574Z,2.58
2023-05-06T03:52:00.613Z,2.54
2023-05-06T03:53:00.651Z,2.54
2023-05-06T03:54:00.696Z,2.51
2023-05-06T03:55:00.727Z,2.50
2023-05-06T03:56:00.759Z,2.47
2023-05-06T03:57:00.814Z,2.48
2023-05-06T03:58:00.846Z,2.51
2023-05-06T03:59:00.881Z,2.51
2023-05-06T04:00:01.211Z,2.48
2023-05-06T04:01:01.048Z,2.46
2023-05-06T04:02:01.064Z,2.44
2023-05-06T04:03:01.203Z,2.45
2023-05-06T04:04:01.153Z,2.46
2023-05-06T04:05:01.114Z,2.48
2023-05-06T04:06:01.167Z,2.48
2023-05-06T04:07:01.196Z,2.42
2023-05-06T04:08:01.240Z,2.43
2023-05-06T04:09:01.289Z,2.45
2023-05-06T04:10:01.338Z,2.42
2023-05-06T04:11:01.359Z,2.44
2023-05-06T04:12:01.402Z,2.39
2023-05-06T04:13:01.518Z,2.46
2023-05-06T04:14:01.492Z,2.46
2023-05-06T04:15:01.536Z,2.38
2023-05-06T04:16:01.612Z,2.40
2023-05-06T04:17:01.623Z,2.36
2023-05-06T04:18:01.772Z,2.38
2023-05-06T04:19:02.529Z,2.39
2023-05-06T04:20:01.732Z,2.34
2023-05-06T04:21:01.792Z,2.36
2023-05-06T04:22:01.822Z,2.37
2023-05-06T04:23:01.860Z,2.36
2023-05-06T04:24:01.913Z,2.34
2023-05-06T04:25:01.943Z,2.35
2023-05-06T04:26:01.981Z,2.33
2023-05-06T04:27:02.051Z,2.41
2023-05-06T04:28:02.083Z,2.30
2023-05-06T04:29:02.185Z,2.28
2023-05-06T04:30:02.162Z,2.34
2023-05-06T04:31:02.217Z,2.35
2023-05-06T04:32:02.363Z,2.36
2023-05-06T04:33:02.462Z,2.36
2023-05-06T04:34:02.335Z,2.31
2023-05-06T04:35:02.426Z,2.26
2023-05-06T04:36:02.408Z,2.32
2023-05-06T04:37:02.448Z,2.31
2023-05-06T04:38:02.504Z,2.33
2023-05-06T04:39:02.541Z,2.35
2023-05-06T04:40:02.587Z,2.31
2023-05-06T04:41:02.634Z,2.27
2023-05-06T04:42:02.669Z,2.30
2023-05-06T04:43:02.719Z,2.31
2023-05-06T04:44:02.767Z,2.27
2023-05-06T04:45:02.793Z,2.30
2023-05-06T04:46:02.855Z,2.24
2023-05-06T04:47:02.871Z,2.27
2023-05-06T04:48:02.979Z,2.23
2023-05-06T04:49:02.968Z,2.27
2023-05-06T04:50:03.022Z,2.27
2023-05-06T04:51:03.061Z,2.26
2023-05-06T04:52:03.092Z,2.26
2023-05-06T04:53:03.131Z,2.22
2023-05-06T04:54:03.238Z,2.23
2023-05-06T04:55:03.254Z,2.21
2023-05-06T04:56:03.249Z,2.27
2023-05-06T04:57:03.336Z,2.23
2023-05-06T04:58:03.346Z,2.27
2023-05-06T04:59:03.469Z,2.22
2023-05-06T05:00:03.437Z,2.23
2023-05-06T05:01:03.480Z,2.23
2023-05-06T05:02:03.560Z,2.27
2023-05-06T05:03:03.627Z,2.21
2023-05-06T05:04:03.601Z,2.23
2023-05-06T05:05:03.633Z,2.21
2023-05-06T05:06:03.667Z,2.19
2023-05-06T05:07:03.773Z,2.16
2023-05-06T05:08:03.752Z,2.20
2023-05-06T05:09:03.795Z,2.17
2023-05-06T05:10:03.841Z,2.19
2023-05-06T05:11:03.868Z,2.16
2023-05-06T05:12:03.909Z,2.15
2023-05-06T05:13:03.983Z,2.19
2023-05-06T05:14:04.021Z,2.17
2023-05-06T05:15:04.044Z,2.10
2023-05-06T05:16:04.078Z,2.08
2023-05-06T05:17:04.130Z,2.15
2023-05-06T05:18:04.164Z,2.04
2023-05-06T05:19:04.885Z,2.09
2023-05-06T05:20:04.218Z,2.07
2023-05-06T05:21:04.262Z,2.10
2023-05-06T05:22:04.307Z,2.10
2023-05-06T05:23:04.310Z,2.10
2023-05-06T05:24:04.350Z,2.10
2023-05-06T05:25:06.984Z,2.09
2023-05-06T05:26:04.361Z,2.14
2023-05-06T05:27:04.337Z,2.03
2023-05-06T05:28:04.368Z,2.08
2023-05-06T05:29:04.305Z,2.05
2023-05-06T05:30:04.283Z,2.09
2023-05-06T05:31:04.404Z,2.04
2023-05-06T05:32:04.238Z,2.03
2023-05-06T05:33:04.258Z,2.00
2023-05-06T05:34:04.192Z,2.06
2023-05-06T05:35:04.183Z,2.00
2023-05-06T05:36:04.137Z,2.04
2023-05-06T05:37:04.105Z,1.99
2023-05-06T05:38:04.078Z,2.00
2023-05-06T05:39:04.141Z,2.00
2023-05-06T05:40:04.035Z,2.01
2023-05-06T05:41:04.016Z,1.96
2023-05-06T05:42:03.981Z,2.01
2023-05-06T05:43:03.951Z,2.02
2023-05-06T05:44:03.935Z,1.98
2023-05-06T05:45:03.904Z,2.00
2023-05-06T05:46:03.946Z,1.97
2023-05-06T05:47:03.867Z,1.99
2023-05-06T05:48:03.911Z,1.97
2023-05-06T05:49:03.828Z,1.96
2023-05-06T05:50:03.793Z,1.91
2023-05-06T05:51:03.778Z,1.93
2023-05-06T05:52:03.754Z,1.97
2023-05-06T05:53:03.744Z,1.93
2023-05-06T05:54:03.730Z,1.90
2023-05-06T05:55:03.769Z,1.94
2023-05-06T05:56:03.667Z,1.94
2023-05-06T05:57:03.711Z,1.92
2023-05-06T05:58:03.753Z,1.90
2023-05-06T05:59:03.792Z,1.93
2023-05-06T06:00:03.826Z,1.93
2023-05-06T06:01:04.383Z,1.89
2023-05-06T06:02:03.900Z,1.93
2023-05-06T06:03:04.073Z,1.91
2023-05-06T06:04:04.156Z,1.93
2023-05-06T06:05:04.038Z,1.93
2023-05-06T06:06:04.073Z,1.90
2023-05-06T06:07:04.115Z,1.91
2023-05-06T06:08:04.181Z,1.88
2023-05-06T06:09:04.191Z,1.88
2023-05-06T06:10:04.253Z,1.86
2023-05-06T06:11:04.364Z,1.90
2023-05-06T06:12:04.342Z,1.89
2023-05-06T06:13:04.405Z,1.88
2023-05-06T06:14:04.441Z,1.85
2023-05-06T06:15:04.483Z,1.84
2023-05-06T06:16:04.554Z,1.86
2023-05-06T06:17:04.572Z,1.85
2023-05-06T06:18:04.704Z,1.84
2023-05-06T06:19:04.663Z,1.86
2023-05-06T06:20:04.713Z,1.85
2023-05-06T06:21:04.767Z,1.87
2023-05-06T06:22:04.803Z,1.84
2023-05-06T06:23:04.846Z,1.83
2023-05-06T06:24:04.914Z,1.82
2023-05-06T06:25:04.943Z,1.83
2023-05-06T06:26:04.982Z,1.85
2023-05-06T06:27:05.028Z,1.83
2023-05-06T06:28:05.083Z,1.82
2023-05-06T06:29:05.127Z,1.82
2023-05-06T06:30:05.184Z,1.83
2023-05-06T06:31:05.224Z,1.81
2023-05-06T06:32:05.287Z,1.80
2023-05-06T06:33:05.358Z,1.78
2023-05-06T06:34:05.357Z,1.82
2023-05-06T06:35:05.410Z,1.81
2023-05-06T06:36:05.461Z,1.77
2023-05-06T06:37:07.401Z,1.80
2023-05-06T06:38:05.546Z,1.79
2023-05-06T06:39:05.565Z,1.77
2023-05-06T06:40:05.626Z,1.77
2023-05-06T06:41:05.653Z,1.78
2023-05-06T06:42:05.694Z,1.74
2023-05-06T06:43:05.737Z,1.76
2023-05-06T06:44:05.774Z,1.74
2023-05-06T06:45:05.799Z,1.73
2023-05-06T06:46:05.901Z,1.75
2023-05-06T06:47:05.893Z,1.74
2023-05-06T06:48:05.993Z,1.73
2023-05-06T06:49:05.979Z,1.70
2023-05-06T06:50:06.004Z,1.72
2023-05-06T06:51:06.047Z,1.71
2023-05-06T06:52:06.083Z,1.71
2023-05-06T06:53:06.648Z,1.67
2023-05-06T06:54:06.154Z,1.69
2023-05-06T06:55:06.217Z,1.71
2023-05-06T06:56:06.247Z,1.71
2023-05-06T06:57:06.281Z,1.70
2023-05-06T06:58:06.399Z,1.69
2023-05-06T06:59:06.418Z,1.66
2023-05-06T07:00:06.395Z,1.67
2023-05-06T07:01:06.443Z,1.68
2023-05-06T07:02:06.466Z,1.65
2023-05-06T07:03:06.625Z,1.68
2023-05-06T07:04:07.359Z,1.67
2023-05-06T07:05:06.571Z,1.68
2023-05-06T07:06:06.683Z,1.62
2023-05-06T07:07:06.630Z,1.66
2023-05-06T07:08:06.666Z,1.66
2023-05-06T07:09:06.694Z,1.62
2023-05-06T07:10:06.809Z,1.64
2023-05-06T07:11:06.764Z,1.63
2023-05-06T07:12:06.792Z,1.64
2023-05-06T07:13:06.868Z,1.65
2023-05-06T07:14:06.857Z,1.64
2023-05-06T07:15:07.033Z,1.62
2023-05-06T07:16:06.929Z,1.66
2023-05-06T07:17:06.991Z,1.64
2023-05-06T07:18:07.014Z,1.63
2023-05-06T07:19:07.012Z,1.63
2023-05-06T07:20:07.061Z,1.62
2023-05-06T07:21:07.065Z,1.62
2023-05-06T07:22:07.128Z,1.61
2023-05-06T07:23:07.139Z,1.61
2023-05-06T07:24:07.164Z,1.59
2023-05-06T07:25:07.226Z,1.57
2023-05-06T07:26:07.221Z,1.59
2023-05-06T07:27:07.266Z,1.55
2023-05-06T07:28:07.289Z,1.56
2023-05-06T07:29:07.327Z,1.56
2023-05-06T07:30:07.358Z,1.57
2023-05-06T07:31:07.513Z,1.56
2023-05-06T07:32:07.396Z,1.59
2023-05-06T07:33:07.452Z,1.56
2023-05-06T07:34:07.452Z,1.53
2023-05-06T07:35:07.519Z,1.58
2023-05-06T07:36:07.516Z,1.58
2023-05-06T07:37:07.552Z,1.56
2023-05-06T07:38:07.563Z,1.54
2023-05-06T07:39:07.690Z,1.56
2023-05-06T07:40:07.629Z,1.54
2023-05-06T07:41:07.665Z,1.57
2023-05-06T07:42:07.681Z,1.56
2023-05-06T07:43:07.724Z,1.53
2023-05-06T07:44:07.729Z,1.54
2023-05-06T07:45:07.990Z,1.52
2023-05-06T07:46:07.825Z,1.51
2023-05-06T07:47:08.209Z,1.51
2023-05-06T07:48:07.906Z,1.48
2023-05-06T07:49:07.865Z,1.49
2023-05-06T07:50:07.900Z,1.51
2023-05-06T07:51:07.928Z,1.54
2023-05-06T07:52:07.957Z,1.48
2023-05-06T07:53:07.971Z,1.50
2023-05-06T07:54:08.007Z,1.51
2023-05-06T07:55:08.098Z,1.52
2023-05-06T07:56:08.055Z,1.47
2023-05-06T07:57:08.092Z,1.50
2023-05-06T07:58:08.129Z,1.49
2023-05-06T07:59:08.151Z,1.46
2023-05-06T08:00:08.179Z,1.48
2023-05-06T08:01:08.232Z,1.48
2023-05-06T08:02:08.284Z,1.50
2023-05-06T08:03:08.442Z,1.45
2023-05-06T08:04:08.409Z,1.48
2023-05-06T08:05:08.409Z,1.46
2023-05-06T08:06:08.391Z,1.46
2023-05-06T08:07:08.396Z,1.50
2023-05-06T08:08:08.455Z,1.47
2023-05-06T08:09:08.473Z,1.48
2023-05-06T08:10:08.500Z,1.46
2023-05-06T08:11:08.543Z,1.43
2023-05-06T08:12:08.568Z,1.47
2023-05-06T08:13:08.623Z,1.47
2023-05-06T08:14:08.618Z,1.47
2023-05-06T08:15:08.750Z,1.47
2023-05-06T08:16:09.444Z,1.45
2023-05-06T08:17:09.461Z,1.46
2023-05-06T08:18:20.832Z,1.44
2023-05-06T08:19:09.727Z,1.44
2023-05-06T08:20:08.704Z,1.44
2023-05-06T08:21:08.663Z,1.45
2023-05-06T08:22:08.634Z,1.47
2023-05-06T08:23:08.602Z,1.47
2023-05-06T08:24:08.569Z,1.47
2023-05-06T08:25:08.718Z,1.46
2023-05-06T08:26:08.510Z,1.48
2023-05-06T08:27:08.481Z,1.46
2023-05-06T08:28:08.448Z,1.43
2023-05-06T08:29:08.470Z,1.46
2023-05-06T08:30:08.515Z,1.43
2023-05-06T08:31:08.553Z,1.46
2023-05-06T08:32:08.717Z,1.47
2023-05-06T08:33:08.670Z,1.47
2023-05-06T08:34:08.647Z,1.44
2023-05-06T08:35:08.965Z,1.45
2023-05-06T08:36:08.715Z,1.46
2023-05-06T08:37:08.764Z,1.44
2023-05-06T08:38:08.781Z,1.45
2023-05-06T08:39:08.806Z,1.43
2023-05-06T08:40:08.842Z,1.44
2023-05-06T08:41:08.874Z,1.41
2023-05-06T08:42:08.896Z,1.43
2023-05-06T08:43:08.958Z,1.43
2023-05-06T08:44:08.953Z,1.41
2023-05-06T08:45:09.121Z,1.42
2023-05-06T08:46:09.077Z,1.42
2023-05-06T08:47:09.062Z,1.39
2023-05-06T08:48:09.158Z,1.43
2023-05-06T08:49:09.112Z,1.40
2023-05-06T08:50:09.152Z,1.41
2023-05-06T08:51:09.206Z,1.43
2023-05-06T08:52:09.206Z,1.38
2023-05-06T08:53:09.239Z,1.40
2023-05-06T08:54:09.301Z,1.41
2023-05-06T08:55:09.478Z,1.42
2023-05-06T08:56:09.324Z,1.38
2023-05-06T08:57:10.987Z,1.38
2023-05-06T08:58:09.325Z,1.41
2023-05-06T08:59:09.382Z,1.43
2023-05-06T09:00:09.278Z,1.41
2023-05-06T09:01:09.362Z,1.41
2023-05-06T09:02:09.247Z,1.37
2023-05-06T09:03:09.263Z,1.42
2023-05-06T09:04:09.174Z,1.38
2023-05-06T09:05:09.450Z,1.41
2023-05-06T09:06:09.130Z,1.39
2023-05-06T09:07:09.230Z,1.34
2023-05-06T09:08:09.073Z,1.39
2023-05-06T09:09:09.042Z,1.36
2023-05-06T09:10:09.291Z,1.36
2023-05-06T09:11:08.967Z,1.37
2023-05-06T09:12:08.944Z,1.37
2023-05-06T09:13:08.951Z,1.37
2023-05-06T09:14:08.878Z,1.35
2023-05-06T09:15:09.252Z,1.37
2023-05-06T09:16:08.826Z,1.36
2023-05-06T09:17:08.865Z,1.35
2023-05-06T09:18:08.806Z,1.37
2023-05-06T09:19:08.746Z,1.32
2023-05-06T09:20:08.722Z,1.37
2023-05-06T09:21:08.703Z,1.34
2023-05-06T09:22:08.681Z,1.37
2023-05-06T09:23:08.692Z,1.34
2023-05-06T09:24:08.624Z,1.32
2023-05-06T09:25:08.679Z,1.32
2023-05-06T09:26:08.571Z,1.34
2023-05-06T09:27:10.442Z,1.36
2023-05-06T09:28:08.515Z,1.34
2023-05-06T09:29:08.497Z,1.35
2023-05-06T09:30:08.524Z,1.34
2023-05-06T09:31:08.565Z,1.32
2023-05-06T09:32:08.555Z,1.35
2023-05-06T09:33:08.586Z,1.31
2023-05-06T09:34:08.594Z,1.33
2023-05-06T09:35:08.778Z,1.29
2023-05-06T09:36:08.631Z,1.34
2023-05-06T09:37:08.643Z,1.33
2023-05-06T09:38:08.668Z,1.32
2023-05-06T09:39:08.687Z,1.30
2023-05-06T09:40:08.752Z,1.31
2023-05-06T09:41:08.717Z,1.28
2023-05-06T09:42:08.717Z,1.31
2023-05-06T09:43:08.740Z,1.31
2023-05-06T09:44:08.761Z,1.28
2023-05-06T09:45:08.910Z,1.33
2023-05-06T09:46:08.957Z,1.30
2023-05-06T09:47:08.786Z,1.27
2023-05-06T09:48:08.827Z,1.30
2023-05-06T09:49:08.812Z,1.29
2023-05-06T09:50:08.851Z,1.30
2023-05-06T09:51:08.845Z,1.27
2023-05-06T09:52:08.865Z,1.28
2023-05-06T09:53:08.870Z,1.28
2023-05-06T09:54:08.882Z,1.26
2023-05-06T09:55:09.448Z,1.26
2023-05-06T09:56:08.902Z,1.26
2023-05-06T09:57:08.918Z,1.27
2023-05-06T09:58:08.958Z,1.28
2023-05-06T09:59:08.945Z,1.28
2023-05-06T10:00:08.964Z,1.27
2023-05-06T10:01:09.028Z,1.27
2023-05-06T10:02:09.047Z,1.25
2023-05-06T10:03:09.122Z,1.25
2023-05-06T10:04:09.255Z,1.26
2023-05-06T10:05:09.371Z,1.27
2023-05-06T10:06:09.008Z,1.25
2023-05-06T10:07:09.018Z,1.25
2023-05-06T10:08:09.035Z,1.25
2023-05-06T10:09:09.036Z,1.28
2023-05-06T10:10:09.039Z,1.25
2023-05-06T10:11:09.062Z,1.26
2023-05-06T10:12:09.055Z,1.26
2023-05-06T10:13:09.210Z,1.26
2023-05-06T10:14:09.066Z,1.24
2023-05-06T10:15:09.366Z,1.23
2023-05-06T10:16:09.088Z,1.23
2023-05-06T10:17:09.080Z,1.25
2023-05-06T10:18:09.133Z,1.24
2023-05-06T10:19:09.095Z,1.23
2023-05-06T10:20:09.082Z,1.21
2023-05-06T10:21:09.080Z,1.23
2023-05-06T10:22:09.092Z,1.23
2023-05-06T10:23:09.090Z,1.21
2023-05-06T10:24:09.146Z,1.21
2023-05-06T10:25:09.236Z,1.20
2023-05-06T10:26:09.087Z,1.21
2023-05-06T10:27:09.075Z,1.21
2023-05-06T10:28:10.674Z,1.20
2023-05-06T10:29:10.047Z,1.21
2023-05-06T10:30:09.032Z,1.21
2023-05-06T10:31:08.968Z,1.22
2023-05-06T10:32:08.947Z,1.20
2023-05-06T10:33:08.965Z,1.21
2023-05-06T10:34:08.867Z,1.22
2023-05-06T10:35:08.898Z,1.20
2023-05-06T10:36:08.797Z,1.20
2023-05-06T10:37:08.767Z,1.21
2023-05-06T10:38:08.735Z,1.19
2023-05-06T10:39:08.712Z,1.19
2023-05-06T10:40:08.671Z,1.20
2023-05-06T10:41:08.633Z,1.17
2023-05-06T10:42:08.624Z,1.19
2023-05-06T10:43:08.641Z,1.19
2023-05-06T10:44:08.548Z,1.17
2023-05-06T10:45:08.639Z,1.17
2023-05-06T10:46:08.659Z,1.16
2023-05-06T10:47:08.464Z,1.17
2023-05-06T10:48:08.468Z,1.17
2023-05-06T10:49:08.467Z,1.17
2023-05-06T10:50:08.383Z,1.16
2023-05-06T10:51:08.352Z,1.18
2023-05-06T10:52:08.321Z,1.17
2023-05-06T10:53:08.314Z,1.17
2023-05-06T10:54:08.317Z,1.18
2023-05-06T10:55:08.457Z,1.16
2023-05-06T10:56:08.274Z,1.15
2023-05-06T10:57:08.271Z,1.18
2023-05-06T10:58:08.249Z,1.15
2023-05-06T10:59:08.441Z,1.16
2023-05-06T11:00:08.223Z,1.19
2023-05-06T11:01:08.355Z,1.16
2023-05-06T11:02:08.211Z,1.14
2023-05-06T11:03:08.346Z,1.15
2023-05-06T11:04:08.188Z,1.15
2023-05-06T11:05:08.243Z,1.13
2023-05-06T11:06:08.110Z,1.13
2023-05-06T11:07:08.091Z,1.15
2023-05-06T11:08:08.077Z,1.11
2023-05-06T11:09:08.060Z,1.14
2023-05-06T11:10:08.060Z,1.15
2023-05-06T11:11:08.014Z,1.14
2023-05-06T11:12:07.991Z,1.14
2023-05-06T11:13:08.004Z,1.14
2023-05-06T11:14:07.963Z,1.14
2023-05-06T11:15:08.229Z,1.14
2023-05-06T11:16:07.910Z,1.15
2023-05-06T11:17:07.956Z,1.13
2023-05-06T11:18:08.044Z,1.13
2023-05-06T11:19:07.874Z,1.13
2023-05-06T11:20:08.000Z,1.12
2023-05-06T11:21:07.796Z,1.14
2023-05-06T11:22:07.785Z,1.12
2023-05-06T11:23:07.761Z,1.13
2023-05-06T11:24:07.729Z,1.11
2023-05-06T11:25:07.702Z,1.11
2023-05-06T11:26:07.678Z,1.11
2023-05-06T11:27:07.656Z,1.10
2023-05-06T11:28:07.634Z,1.12
2023-05-06T11:29:07.584Z,1.11
2023-05-06T11:30:07.554Z,1.11
2023-05-06T11:31:07.626Z,1.12
2023-05-06T11:32:07.503Z,1.11
2023-05-06T11:33:07.479Z,1.10
2023-05-06T11:34:07.454Z,1.10
2023-05-06T11:35:07.409Z,1.09
2023-05-06T11:36:07.381Z,1.11
2023-05-06T11:37:07.357Z,1.09
2023-05-06T11:38:07.394Z,1.11
2023-05-06T11:39:07.297Z,1.10
2023-05-06T11:40:07.254Z,1.08
2023-05-06T11:41:07.226Z,1.10
2023-05-06T11:42:07.225Z,1.09
2023-05-06T11:43:07.176Z,1.08
2023-05-06T11:44:07.996Z,1.11
2023-05-06T11:45:07.131Z,1.09
2023-05-06T11:46:07.118Z,1.09
2023-05-06T11:47:07.203Z,1.07
2023-05-06T11:48:07.008Z,1.07
2023-05-06T11:49:06.980Z,1.08
2023-05-06T11:50:06.948Z,1.09
2023-05-06T11:51:06.901Z,1.08
2023-05-06T11:52:06.870Z,1.06
2023-05-06T11:53:06.824Z,1.05
2023-05-06T11:54:06.840Z,1.10
2023-05-06T11:55:06.837Z,1.04
2023-05-06T11:56:06.826Z,1.07
2023-05-06T11:57:06.865Z,1.07
2023-05-06T11:58:06.842Z,1.06
2023-05-06T11:59:06.844Z,1.07
2023-05-06T12:00:06.839Z,1.07
2023-05-06T12:01:06.830Z,1.06
2023-05-06T12:02:06.792Z,1.10
2023-05-06T12:03:06.951Z,1.07
2023-05-06T12:04:06.910Z,1.09
2023-05-06T12:05:06.672Z,1.07
2023-05-06T12:06:06.650Z,1.09
2023-05-06T12:07:06.620Z,1.07
2023-05-06T12:08:16.225Z,1.08
2023-05-06T12:09:07.604Z,1.09
2023-05-06T12:10:06.524Z,1.09
2023-05-06T12:11:06.518Z,1.09
2023-05-06T12:12:06.471Z,1.09
2023-05-06T12:13:06.517Z,1.09
2023-05-06T12:14:06.401Z,1.08
2023-05-06T12:15:06.376Z,1.07
2023-05-06T12:16:06.397Z,1.07
2023-05-06T12:17:06.294Z,1.05
2023-05-06T12:18:06.296Z,1.06
2023-05-06T12:19:06.315Z,1.07
2023-05-06T12:20:06.260Z,1.04
2023-05-06T12:21:06.271Z,1.07
2023-05-06T12:22:06.294Z,1.06
2023-05-06T12:23:06.341Z,1.05
2023-05-06T12:24:06.415Z,1.04
2023-05-06T12:25:06.400Z,1.04
2023-05-06T12:26:06.429Z,1.04
2023-05-06T12:27:06.559Z,1.07
2023-05-06T12:28:06.502Z,1.05
2023-05-06T12:29:06.531Z,1.04
2023-05-06T12:30:07.543Z,1.04
2023-05-06T12:31:06.627Z,1.06
2023-05-06T12:32:06.683Z,1.03
2023-05-06T12:33:06.674Z,1.03
2023-05-06T12:34:06.721Z,1.03
2023-05-06T12:35:06.744Z,1.06
2023-05-06T12:36:06.775Z,1.02
2023-05-06T12:37:06.764Z,1.04
2023-05-06T12:38:06.779Z,1.02
2023-05-06T12:39:06.804Z,1.02
2023-05-06T12:40:06.829Z,1.03
2023-05-06T12:41:06.843Z,1.03
2023-05-06T12:42:06.907Z,1.03
2023-05-06T12:43:06.885Z,1.03
2023-05-06T12:44:07.045Z,1.03
2023-05-06T12:45:06.925Z,1.02
2023-05-06T12:46:06.992Z,1.01
2023-05-06T12:47:06.970Z,1.02
2023-05-06T12:48:07.087Z,1.02
2023-05-06T12:49:06.987Z,1.02
2023-05-06T12:50:07.022Z,1.00
2023-05-06T12:51:07.080Z,1.03
2023-05-06T12:52:07.042Z,1.02
2023-05-06T12:53:07.046Z,1.04
2023-05-06T12:54:07.048Z,1.01
2023-05-06T12:55:07.066Z,1.01
2023-05-06T12:56:07.067Z,1.01
2023-05-06T12:57:07.064Z,1.04
2023-05-06T12:58:07.070Z,1.03
2023-05-06T12:59:07.068Z,1.02
2023-05-06T13:00:07.073Z,1.01
2023-05-06T13:01:07.137Z,1.02
2023-05-06T13:02:07.102Z,1.03
2023-05-06T13:03:07.130Z,1.02
2023-05-06T13:04:07.078Z,1.01
2023-05-06T13:05:07.063Z,1.00
2023-05-06T13:06:07.067Z,1.02
2023-05-06T13:07:07.122Z,0.99
2023-05-06T13:08:07.057Z,1.00
2023-05-06T13:09:07.056Z,1.01
2023-05-06T13:10:07.036Z,1.01
2023-05-06T13:11:07.022Z,0.99
2023-05-06T13:12:07.023Z,0.99
2023-05-06T13:13:07.060Z,0.99
2023-05-06T13:14:06.998Z,0.99
2023-05-06T13:15:06.996Z,0.98
2023-05-06T13:16:06.988Z,0.97
2023-05-06T13:17:07.174Z,0.99
2023-05-06T13:18:07.059Z,0.97
2023-05-06T13:19:08.205Z,0.96